sensor_id;sensor_type;location;lat;lon;timestamp;P1;durP1;ratioP1;P2;durP2;ratioP2
3068;SDS011;1545;51.728;8.796;2023-03-19T00:01:08;10.03;;;6.17;;
3068;SDS011;1545;51.728;8.796;2023-03-19T00:03:34;10.93;;;6.50;;
3068;SDS011;1545;51.728;8.796;2023-03-19T00:06:00;10.53;;;6.37;;
3068;SDS011;1545;51.728;8.796;2023-03-19T00:08:26;10.97;;;6.57;;
3068;SDS011;1545;51.728;8.796;2023-03-19T00:10:51;14.27;;;6.40;;
3068;SDS011;1545;51.728;8.796;2023-03-19T00:13:17;11.33;;;5.70;;
3068;SDS011;1545;51.728;8.796;2023-03-19T00:15:43;12.80;;;6.33;;
3068;SDS011;1545;51.728;8.796;2023-03-19T00:18:08;10.87;;;5.93;;
3068;SDS011;1545;51.728;8.796;2023-03-19T00:20:34;14.10;;;6.20;;
3068;SDS011;1545;51.728;8.796;2023-03-19T00:23:00;11.13;;;6.10;;
3068;SDS011;1545;51.728;8.796;2023-03-19T00:25:26;16.60;;;5.90;;
3068;SDS011;1545;51.728;8.796;2023-03-19T00:27:51;12.07;;;5.80;;
3068;SDS011;1545;51.728;8.796;2023-03-19T00:30:19;11.80;;;5.67;;
3068;SDS011;1545;51.728;8.796;2023-03-19T00:32:45;13.73;;;6.40;;
3068;SDS011;1545;51.728;8.796;2023-03-19T00:35:12;13.20;;;6.17;;
3068;SDS011;1545;51.728;8.796;2023-03-19T00:37:37;12.30;;;6.03;;
3068;SDS011;1545;51.728;8.796;2023-03-19T00:40:03;11.10;;;5.23;;
3068;SDS011;1545;51.728;8.796;2023-03-19T00:42:30;15.23;;;6.10;;
3068;SDS011;1545;51.728;8.796;2023-03-19T00:44:55;15.53;;;6.30;;
3068;SDS011;1545;51.728;8.796;2023-03-19T00:47:21;13.43;;;6.00;;
3068;SDS011;1545;51.728;8.796;2023-03-19T00:49:47;18.37;;;6.10;;
3068;SDS011;1545;51.728;8.796;2023-03-19T00:52:13;12.97;;;5.70;;
3068;SDS011;1545;51.728;8.796;2023-03-19T00:54:39;9.10;;;5.57;;
3068;SDS011;1545;51.728;8.796;2023-03-19T00:57:05;11.03;;;5.67;;
3068;SDS011;1545;51.728;8.796;2023-03-19T00:59:31;9.33;;;5.17;;
3068;SDS011;1545;51.728;8.796;2023-03-19T01:01:56;15.67;;;5.60;;
3068;SDS011;1545;51.728;8.796;2023-03-19T01:04:22;10.00;;;5.77;;
3068;SDS011;1545;51.728;8.796;2023-03-19T01:06:47;14.53;;;6.00;;
3068;SDS011;1545;51.728;8.796;2023-03-19T01:09:13;12.30;;;5.53;;
3068;SDS011;1545;51.728;8.796;2023-03-19T01:11:39;13.67;;;6.13;;
3068;SDS011;1545;51.728;8.796;2023-03-19T01:14:05;11.20;;;6.20;;
3068;SDS011;1545;51.728;8.796;2023-03-19T01:16:30;9.10;;;5.10;;
3068;SDS011;1545;51.728;8.796;2023-03-19T01:18:58;20.10;;;5.70;;
3068;SDS011;1545;51.728;8.796;2023-03-19T01:21:23;12.97;;;5.83;;
3068;SDS011;1545;51.728;8.796;2023-03-19T01:23:49;18.40;;;6.17;;
3068;SDS011;1545;51.728;8.796;2023-03-19T01:26:16;14.30;;;5.60;;
3068;SDS011;1545;51.728;8.796;2023-03-19T01:28:42;9.30;;;5.80;;
3068;SDS011;1545;51.728;8.796;2023-03-19T01:31:08;12.00;;;5.60;;
3068;SDS011;1545;51.728;8.796;2023-03-19T01:33:34;12.37;;;5.53;;
3068;SDS011;1545;51.728;8.796;2023-03-19T01:36:01;11.77;;;5.03;;
3068;SDS011;1545;51.728;8.796;2023-03-19T01:38:28;12.63;;;5.57;;
3068;SDS011;1545;51.728;8.796;2023-03-19T01:40:55;12.27;;;5.43;;
3068;SDS011;1545;51.728;8.796;2023-03-19T01:43:22;14.97;;;5.67;;
3068;SDS011;1545;51.728;8.796;2023-03-19T01:45:50;18.20;;;6.00;;
3068;SDS011;1545;51.728;8.796;2023-03-19T01:48:24;10.70;;;5.20;;
3068;SDS011;1545;51.728;8.796;2023-03-19T01:50:53;13.27;;;5.73;;
3068;SDS011;1545;51.728;8.796;2023-03-19T01:53:21;14.07;;;5.50;;
3068;SDS011;1545;51.728;8.796;2023-03-19T01:55:49;10.07;;;5.40;;
3068;SDS011;1545;51.728;8.796;2023-03-19T01:58:18;8.53;;;4.90;;
3068;SDS011;1545;51.728;8.796;2023-03-19T02:00:44;9.70;;;5.00;;
3068;SDS011;1545;51.728;8.796;2023-03-19T02:03:10;9.00;;;5.30;;
3068;SDS011;1545;51.728;8.796;2023-03-19T02:05:37;18.60;;;6.00;;
3068;SDS011;1545;51.728;8.796;2023-03-19T02:08:06;11.50;;;5.33;;
3068;SDS011;1545;51.728;8.796;2023-03-19T02:10:34;12.87;;;6.00;;
3068;SDS011;1545;51.728;8.796;2023-03-19T02:13:01;14.23;;;5.47;;
3068;SDS011;1545;51.728;8.796;2023-03-19T02:15:26;16.73;;;5.40;;
3068;SDS011;1545;51.728;8.796;2023-03-19T02:17:52;11.67;;;5.77;;
3068;SDS011;1545;51.728;8.796;2023-03-19T02:20:31;14.20;;;5.97;;
3068;SDS011;1545;51.728;8.796;2023-03-19T02:23:20;9.73;;;5.70;;
3068;SDS011;1545;51.728;8.796;2023-03-19T02:26:02;13.30;;;5.70;;
3068;SDS011;1545;51.728;8.796;2023-03-19T02:28:31;13.40;;;6.00;;
3068;SDS011;1545;51.728;8.796;2023-03-19T02:30:57;10.40;;;5.50;;
3068;SDS011;1545;51.728;8.796;2023-03-19T02:33:23;17.37;;;6.13;;
3068;SDS011;1545;51.728;8.796;2023-03-19T02:35:50;14.73;;;7.10;;
3068;SDS011;1545;51.728;8.796;2023-03-19T02:38:16;15.80;;;6.13;;
3068;SDS011;1545;51.728;8.796;2023-03-19T02:40:47;12.83;;;6.47;;
3068;SDS011;1545;51.728;8.796;2023-03-19T02:43:20;12.93;;;6.23;;
3068;SDS011;1545;51.728;8.796;2023-03-19T02:45:46;17.70;;;6.43;;
3068;SDS011;1545;51.728;8.796;2023-03-19T02:48:12;10.60;;;6.00;;
3068;SDS011;1545;51.728;8.796;2023-03-19T02:50:38;13.30;;;6.00;;
3068;SDS011;1545;51.728;8.796;2023-03-19T02:53:03;11.07;;;5.77;;
3068;SDS011;1545;51.728;8.796;2023-03-19T02:55:29;16.13;;;6.27;;
3068;SDS011;1545;51.728;8.796;2023-03-19T02:57:54;12.50;;;6.20;;
3068;SDS011;1545;51.728;8.796;2023-03-19T03:00:20;11.83;;;5.87;;
3068;SDS011;1545;51.728;8.796;2023-03-19T03:02:46;10.70;;;5.83;;
3068;SDS011;1545;51.728;8.796;2023-03-19T03:05:12;12.13;;;6.40;;
3068;SDS011;1545;51.728;8.796;2023-03-19T03:07:38;11.93;;;5.73;;
3068;SDS011;1545;51.728;8.796;2023-03-19T03:10:04;15.73;;;5.87;;
3068;SDS011;1545;51.728;8.796;2023-03-19T03:12:32;13.97;;;5.80;;
3068;SDS011;1545;51.728;8.796;2023-03-19T03:14:57;9.87;;;5.00;;
3068;SDS011;1545;51.728;8.796;2023-03-19T03:17:23;9.73;;;5.27;;
3068;SDS011;1545;51.728;8.796;2023-03-19T03:19:48;11.40;;;5.10;;
3068;SDS011;1545;51.728;8.796;2023-03-19T03:22:14;9.07;;;5.10;;
3068;SDS011;1545;51.728;8.796;2023-03-19T03:24:40;13.30;;;4.97;;
3068;SDS011;1545;51.728;8.796;2023-03-19T03:27:05;12.97;;;4.80;;
3068;SDS011;1545;51.728;8.796;2023-03-19T03:29:32;8.23;;;5.37;;
3068;SDS011;1545;51.728;8.796;2023-03-19T03:31:57;10.30;;;5.00;;
3068;SDS011;1545;51.728;8.796;2023-03-19T03:34:23;12.83;;;5.20;;
3068;SDS011;1545;51.728;8.796;2023-03-19T03:36:48;8.53;;;5.20;;
3068;SDS011;1545;51.728;8.796;2023-03-19T03:39:14;11.17;;;5.13;;
3068;SDS011;1545;51.728;8.796;2023-03-19T03:41:40;8.43;;;4.60;;
3068;SDS011;1545;51.728;8.796;2023-03-19T03:44:05;11.03;;;5.13;;
3068;SDS011;1545;51.728;8.796;2023-03-19T03:46:31;15.63;;;5.67;;
3068;SDS011;1545;51.728;8.796;2023-03-19T03:48:56;7.00;;;5.00;;
3068;SDS011;1545;51.728;8.796;2023-03-19T03:51:22;11.50;;;5.17;;
3068;SDS011;1545;51.728;8.796;2023-03-19T03:53:47;8.17;;;5.17;;
3068;SDS011;1545;51.728;8.796;2023-03-19T03:56:13;11.43;;;5.37;;
3068;SDS011;1545;51.728;8.796;2023-03-19T03:58:38;13.20;;;5.10;;
3068;SDS011;1545;51.728;8.796;2023-03-19T04:01:04;8.83;;;5.07;;
3068;SDS011;1545;51.728;8.796;2023-03-19T04:03:31;10.07;;;4.90;;
3068;SDS011;1545;51.728;8.796;2023-03-19T04:05:57;12.93;;;5.00;;
3068;SDS011;1545;51.728;8.796;2023-03-19T04:08:23;13.13;;;5.20;;
3068;SDS011;1545;51.728;8.796;2023-03-19T04:10:48;8.57;;;4.87;;
3068;SDS011;1545;51.728;8.796;2023-03-19T04:13:14;12.40;;;4.93;;
3068;SDS011;1545;51.728;8.796;2023-03-19T04:15:41;13.83;;;5.50;;
3068;SDS011;1545;51.728;8.796;2023-03-19T04:18:07;10.03;;;5.43;;
3068;SDS011;1545;51.728;8.796;2023-03-19T04:20:33;9.10;;;5.23;;
3068;SDS011;1545;51.728;8.796;2023-03-19T04:22:58;12.67;;;5.57;;
3068;SDS011;1545;51.728;8.796;2023-03-19T04:25:24;13.53;;;5.80;;
3068;SDS011;1545;51.728;8.796;2023-03-19T04:27:50;11.17;;;5.47;;
3068;SDS011;1545;51.728;8.796;2023-03-19T04:30:16;11.80;;;5.30;;
3068;SDS011;1545;51.728;8.796;2023-03-19T04:32:41;12.47;;;5.70;;
3068;SDS011;1545;51.728;8.796;2023-03-19T04:35:08;18.87;;;6.03;;
3068;SDS011;1545;51.728;8.796;2023-03-19T04:37:34;9.23;;;5.30;;
3068;SDS011;1545;51.728;8.796;2023-03-19T04:39:59;10.10;;;5.70;;
3068;SDS011;1545;51.728;8.796;2023-03-19T04:42:25;11.33;;;5.87;;
3068;SDS011;1545;51.728;8.796;2023-03-19T04:44:50;14.60;;;6.10;;
3068;SDS011;1545;51.728;8.796;2023-03-19T04:47:17;13.43;;;6.03;;
3068;SDS011;1545;51.728;8.796;2023-03-19T04:49:42;14.00;;;6.73;;
3068;SDS011;1545;51.728;8.796;2023-03-19T04:52:08;11.87;;;6.90;;
3068;SDS011;1545;51.728;8.796;2023-03-19T04:54:33;16.50;;;6.77;;
3068;SDS011;1545;51.728;8.796;2023-03-19T04:56:59;13.40;;;6.97;;
3068;SDS011;1545;51.728;8.796;2023-03-19T04:59:24;15.53;;;6.60;;
3068;SDS011;1545;51.728;8.796;2023-03-19T05:01:51;16.63;;;7.10;;
3068;SDS011;1545;51.728;8.796;2023-03-19T05:04:16;19.10;;;6.87;;
3068;SDS011;1545;51.728;8.796;2023-03-19T05:06:42;11.63;;;6.37;;
3068;SDS011;1545;51.728;8.796;2023-03-19T05:09:08;14.43;;;6.50;;
3068;SDS011;1545;51.728;8.796;2023-03-19T05:11:33;10.93;;;5.90;;
3068;SDS011;1545;51.728;8.796;2023-03-19T05:13:59;14.47;;;6.00;;
3068;SDS011;1545;51.728;8.796;2023-03-19T05:16:25;12.07;;;5.83;;
3068;SDS011;1545;51.728;8.796;2023-03-19T05:18:50;16.47;;;5.93;;
3068;SDS011;1545;51.728;8.796;2023-03-19T05:21:16;10.60;;;5.83;;
3068;SDS011;1545;51.728;8.796;2023-03-19T05:23:42;14.33;;;5.83;;
3068;SDS011;1545;51.728;8.796;2023-03-19T05:26:07;10.20;;;5.60;;
3068;SDS011;1545;51.728;8.796;2023-03-19T05:28:33;10.13;;;5.63;;
3068;SDS011;1545;51.728;8.796;2023-03-19T05:30:59;11.67;;;6.03;;
3068;SDS011;1545;51.728;8.796;2023-03-19T05:33:25;15.93;;;5.90;;
3068;SDS011;1545;51.728;8.796;2023-03-19T05:35:50;7.97;;;5.37;;
3068;SDS011;1545;51.728;8.796;2023-03-19T05:38:17;14.23;;;6.03;;
3068;SDS011;1545;51.728;8.796;2023-03-19T05:40:42;15.00;;;6.23;;
3068;SDS011;1545;51.728;8.796;2023-03-19T05:43:08;11.57;;;6.23;;
3068;SDS011;1545;51.728;8.796;2023-03-19T05:45:34;13.33;;;5.53;;
3068;SDS011;1545;51.728;8.796;2023-03-19T05:48:01;16.50;;;6.40;;
3068;SDS011;1545;51.728;8.796;2023-03-19T05:50:27;9.63;;;5.50;;
3068;SDS011;1545;51.728;8.796;2023-03-19T05:52:52;10.70;;;6.40;;
3068;SDS011;1545;51.728;8.796;2023-03-19T05:55:18;13.57;;;5.93;;
3068;SDS011;1545;51.728;8.796;2023-03-19T05:57:43;11.50;;;5.90;;
3068;SDS011;1545;51.728;8.796;2023-03-19T06:00:09;11.33;;;6.07;;
3068;SDS011;1545;51.728;8.796;2023-03-19T06:02:36;12.83;;;5.80;;
3068;SDS011;1545;51.728;8.796;2023-03-19T06:05:02;14.50;;;5.80;;
3068;SDS011;1545;51.728;8.796;2023-03-19T06:07:28;12.40;;;5.70;;
3068;SDS011;1545;51.728;8.796;2023-03-19T06:09:54;10.27;;;5.40;;
3068;SDS011;1545;51.728;8.796;2023-03-19T06:12:19;15.13;;;5.47;;
3068;SDS011;1545;51.728;8.796;2023-03-19T06:14:45;12.57;;;5.47;;
3068;SDS011;1545;51.728;8.796;2023-03-19T06:17:12;14.53;;;5.77;;
3068;SDS011;1545;51.728;8.796;2023-03-19T06:19:37;13.87;;;5.27;;
3068;SDS011;1545;51.728;8.796;2023-03-19T06:22:03;12.97;;;5.17;;
3068;SDS011;1545;51.728;8.796;2023-03-19T06:24:28;13.50;;;5.50;;
3068;SDS011;1545;51.728;8.796;2023-03-19T06:26:54;14.77;;;5.10;;
3068;SDS011;1545;51.728;8.796;2023-03-19T06:29:20;9.23;;;5.10;;
3068;SDS011;1545;51.728;8.796;2023-03-19T06:31:45;12.03;;;5.23;;
3068;SDS011;1545;51.728;8.796;2023-03-19T06:34:11;13.03;;;5.30;;
3068;SDS011;1545;51.728;8.796;2023-03-19T06:36:37;10.97;;;5.40;;
3068;SDS011;1545;51.728;8.796;2023-03-19T06:39:03;19.23;;;5.67;;
3068;SDS011;1545;51.728;8.796;2023-03-19T06:41:28;12.10;;;6.07;;
3068;SDS011;1545;51.728;8.796;2023-03-19T06:43:54;11.33;;;5.77;;
3068;SDS011;1545;51.728;8.796;2023-03-19T06:46:20;15.07;;;5.63;;
3068;SDS011;1545;51.728;8.796;2023-03-19T06:48:45;11.67;;;5.40;;
3068;SDS011;1545;51.728;8.796;2023-03-19T06:51:11;9.23;;;5.37;;
3068;SDS011;1545;51.728;8.796;2023-03-19T06:53:36;9.43;;;5.00;;
3068;SDS011;1545;51.728;8.796;2023-03-19T06:56:02;11.83;;;4.83;;
3068;SDS011;1545;51.728;8.796;2023-03-19T06:58:28;9.27;;;5.13;;
3068;SDS011;1545;51.728;8.796;2023-03-19T07:00:53;12.87;;;5.50;;
3068;SDS011;1545;51.728;8.796;2023-03-19T07:03:19;11.20;;;5.33;;
3068;SDS011;1545;51.728;8.796;2023-03-19T07:05:46;9.27;;;5.10;;
3068;SDS011;1545;51.728;8.796;2023-03-19T07:08:16;12.93;;;5.03;;
3068;SDS011;1545;51.728;8.796;2023-03-19T07:10:41;7.10;;;4.67;;
3068;SDS011;1545;51.728;8.796;2023-03-19T07:13:07;13.73;;;5.07;;
3068;SDS011;1545;51.728;8.796;2023-03-19T07:15:32;8.00;;;4.50;;
3068;SDS011;1545;51.728;8.796;2023-03-19T07:17:58;10.80;;;4.00;;
3068;SDS011;1545;51.728;8.796;2023-03-19T07:20:23;9.43;;;4.20;;
3068;SDS011;1545;51.728;8.796;2023-03-19T07:22:49;8.93;;;4.30;;
3068;SDS011;1545;51.728;8.796;2023-03-19T07:25:15;12.13;;;4.43;;
3068;SDS011;1545;51.728;8.796;2023-03-19T07:27:41;9.37;;;4.87;;
3068;SDS011;1545;51.728;8.796;2023-03-19T07:30:06;10.83;;;4.83;;
3068;SDS011;1545;51.728;8.796;2023-03-19T07:32:33;8.70;;;4.40;;
3068;SDS011;1545;51.728;8.796;2023-03-19T07:34:59;7.57;;;4.53;;
3068;SDS011;1545;51.728;8.796;2023-03-19T07:37:24;13.00;;;5.20;;
3068;SDS011;1545;51.728;8.796;2023-03-19T07:39:50;9.20;;;4.97;;
3068;SDS011;1545;51.728;8.796;2023-03-19T07:42:16;11.83;;;4.77;;
3068;SDS011;1545;51.728;8.796;2023-03-19T07:44:41;15.27;;;4.90;;
3068;SDS011;1545;51.728;8.796;2023-03-19T07:47:07;10.80;;;5.00;;
3068;SDS011;1545;51.728;8.796;2023-03-19T07:49:32;8.93;;;4.37;;
3068;SDS011;1545;51.728;8.796;2023-03-19T07:51:58;8.13;;;4.70;;
3068;SDS011;1545;51.728;8.796;2023-03-19T07:54:23;9.87;;;4.40;;
3068;SDS011;1545;51.728;8.796;2023-03-19T07:56:49;12.93;;;4.63;;
3068;SDS011;1545;51.728;8.796;2023-03-19T07:59:14;10.83;;;4.23;;
3068;SDS011;1545;51.728;8.796;2023-03-19T08:01:40;10.70;;;4.67;;
3068;SDS011;1545;51.728;8.796;2023-03-19T08:04:06;13.43;;;4.37;;
3068;SDS011;1545;51.728;8.796;2023-03-19T08:06:32;11.77;;;4.17;;
3068;SDS011;1545;51.728;8.796;2023-03-19T08:08:57;10.50;;;4.37;;
3068;SDS011;1545;51.728;8.796;2023-03-19T08:11:23;6.50;;;3.97;;
3068;SDS011;1545;51.728;8.796;2023-03-19T08:13:48;6.33;;;4.10;;
3068;SDS011;1545;51.728;8.796;2023-03-19T08:16:14;8.13;;;4.00;;
3068;SDS011;1545;51.728;8.796;2023-03-19T08:18:40;8.33;;;4.17;;
3068;SDS011;1545;51.728;8.796;2023-03-19T08:21:06;7.90;;;4.10;;
3068;SDS011;1545;51.728;8.796;2023-03-19T08:23:32;13.37;;;3.70;;
3068;SDS011;1545;51.728;8.796;2023-03-19T08:25:57;12.93;;;4.37;;
3068;SDS011;1545;51.728;8.796;2023-03-19T08:28:23;6.60;;;3.87;;
3068;SDS011;1545;51.728;8.796;2023-03-19T08:30:48;13.17;;;4.80;;
3068;SDS011;1545;51.728;8.796;2023-03-19T08:33:14;10.20;;;4.60;;
3068;SDS011;1545;51.728;8.796;2023-03-19T08:35:39;15.10;;;4.77;;
3068;SDS011;1545;51.728;8.796;2023-03-19T08:38:05;7.57;;;4.40;;
3068;SDS011;1545;51.728;8.796;2023-03-19T08:40:31;6.87;;;4.03;;
3068;SDS011;1545;51.728;8.796;2023-03-19T08:42:56;7.60;;;4.30;;
3068;SDS011;1545;51.728;8.796;2023-03-19T08:45:22;10.00;;;4.70;;
3068;SDS011;1545;51.728;8.796;2023-03-19T08:47:48;10.43;;;4.40;;
3068;SDS011;1545;51.728;8.796;2023-03-19T08:50:14;7.20;;;3.83;;
3068;SDS011;1545;51.728;8.796;2023-03-19T08:52:40;7.10;;;3.83;;
3068;SDS011;1545;51.728;8.796;2023-03-19T08:55:06;7.67;;;3.93;;
3068;SDS011;1545;51.728;8.796;2023-03-19T08:57:33;9.13;;;4.33;;
3068;SDS011;1545;51.728;8.796;2023-03-19T08:59:59;7.10;;;4.17;;
3068;SDS011;1545;51.728;8.796;2023-03-19T09:02:24;9.80;;;4.60;;
3068;SDS011;1545;51.728;8.796;2023-03-19T09:04:50;9.47;;;4.23;;
3068;SDS011;1545;51.728;8.796;2023-03-19T09:07:16;7.40;;;4.03;;
3068;SDS011;1545;51.728;8.796;2023-03-19T09:09:41;8.17;;;3.57;;
3068;SDS011;1545;51.728;8.796;2023-03-19T09:12:08;6.10;;;3.80;;
3068;SDS011;1545;51.728;8.796;2023-03-19T09:14:36;7.10;;;3.60;;
3068;SDS011;1545;51.728;8.796;2023-03-19T09:17:02;7.83;;;3.60;;
3068;SDS011;1545;51.728;8.796;2023-03-19T09:19:28;12.27;;;4.00;;
3068;SDS011;1545;51.728;8.796;2023-03-19T09:21:54;7.07;;;4.00;;
3068;SDS011;1545;51.728;8.796;2023-03-19T09:24:20;7.20;;;3.03;;
3068;SDS011;1545;51.728;8.796;2023-03-19T09:26:45;9.27;;;3.07;;
3068;SDS011;1545;51.728;8.796;2023-03-19T09:29:11;5.63;;;3.10;;
3068;SDS011;1545;51.728;8.796;2023-03-19T09:31:37;8.20;;;3.00;;
3068;SDS011;1545;51.728;8.796;2023-03-19T09:34:03;7.53;;;2.93;;
3068;SDS011;1545;51.728;8.796;2023-03-19T09:36:30;5.60;;;3.50;;
3068;SDS011;1545;51.728;8.796;2023-03-19T09:38:56;5.57;;;2.83;;
3068;SDS011;1545;51.728;8.796;2023-03-19T09:41:26;5.87;;;2.67;;
3068;SDS011;1545;51.728;8.796;2023-03-19T09:46:57;4.70;;;3.00;;
3068;SDS011;1545;51.728;8.796;2023-03-19T09:49:25;6.43;;;2.90;;
3068;SDS011;1545;51.728;8.796;2023-03-19T09:51:58;5.37;;;2.97;;
3068;SDS011;1545;51.728;8.796;2023-03-19T09:54:44;6.00;;;2.90;;
3068;SDS011;1545;51.728;8.796;2023-03-19T09:57:12;8.87;;;3.10;;
3068;SDS011;1545;51.728;8.796;2023-03-19T09:59:38;7.07;;;3.50;;
3068;SDS011;1545;51.728;8.796;2023-03-19T10:04:48;8.97;;;3.10;;
3068;SDS011;1545;51.728;8.796;2023-03-19T10:07:36;7.03;;;3.43;;
3068;SDS011;1545;51.728;8.796;2023-03-19T10:13:25;11.23;;;3.07;;
3068;SDS011;1545;51.728;8.796;2023-03-19T10:15:59;3.93;;;3.03;;
3068;SDS011;1545;51.728;8.796;2023-03-19T10:18:30;5.40;;;3.07;;
3068;SDS011;1545;51.728;8.796;2023-03-19T10:21:02;4.20;;;2.80;;
3068;SDS011;1545;51.728;8.796;2023-03-19T10:23:43;4.50;;;2.63;;
3068;SDS011;1545;51.728;8.796;2023-03-19T10:26:29;3.77;;;2.70;;
3068;SDS011;1545;51.728;8.796;2023-03-19T10:29:03;7.50;;;3.03;;
3068;SDS011;1545;51.728;8.796;2023-03-19T10:31:39;8.57;;;3.10;;
3068;SDS011;1545;51.728;8.796;2023-03-19T10:36:57;4.07;;;3.00;;
3068;SDS011;1545;51.728;8.796;2023-03-19T10:39:24;5.30;;;2.97;;
3068;SDS011;1545;51.728;8.796;2023-03-19T10:42:05;7.27;;;3.10;;
3068;SDS011;1545;51.728;8.796;2023-03-19T10:47:39;5.17;;;3.17;;
3068;SDS011;1545;51.728;8.796;2023-03-19T10:50:05;3.30;;;2.73;;
3068;SDS011;1545;51.728;8.796;2023-03-19T10:52:38;4.83;;;2.97;;
3068;SDS011;1545;51.728;8.796;2023-03-19T10:55:16;5.17;;;2.93;;
3068;SDS011;1545;51.728;8.796;2023-03-19T10:57:48;5.20;;;3.30;;
3068;SDS011;1545;51.728;8.796;2023-03-19T11:00:24;6.23;;;2.80;;
3068;SDS011;1545;51.728;8.796;2023-03-19T11:02:54;7.53;;;3.40;;
3068;SDS011;1545;51.728;8.796;2023-03-19T11:07:48;5.77;;;3.10;;
3068;SDS011;1545;51.728;8.796;2023-03-19T11:10:15;4.03;;;3.00;;
3068;SDS011;1545;51.728;8.796;2023-03-19T11:12:41;7.40;;;3.07;;
3068;SDS011;1545;51.728;8.796;2023-03-19T11:15:22;3.93;;;2.90;;
3068;SDS011;1545;51.728;8.796;2023-03-19T11:17:56;4.50;;;3.13;;
3068;SDS011;1545;51.728;8.796;2023-03-19T11:20:28;5.97;;;3.27;;
3068;SDS011;1545;51.728;8.796;2023-03-19T11:22:59;4.90;;;3.23;;
3068;SDS011;1545;51.728;8.796;2023-03-19T11:25:42;6.70;;;3.20;;
3068;SDS011;1545;51.728;8.796;2023-03-19T11:28:17;5.30;;;3.10;;
3068;SDS011;1545;51.728;8.796;2023-03-19T11:36:27;5.80;;;3.60;;
3068;SDS011;1545;51.728;8.796;2023-03-19T11:44:15;6.53;;;3.33;;
3068;SDS011;1545;51.728;8.796;2023-03-19T11:46:59;4.77;;;3.30;;
3068;SDS011;1545;51.728;8.796;2023-03-19T11:54:56;4.97;;;3.43;;
3068;SDS011;1545;51.728;8.796;2023-03-19T11:57:52;4.40;;;3.37;;
3068;SDS011;1545;51.728;8.796;2023-03-19T12:00:49;4.77;;;3.57;;
3068;SDS011;1545;51.728;8.796;2023-03-19T12:03:30;4.67;;;3.40;;
3068;SDS011;1545;51.728;8.796;2023-03-19T12:12:04;4.60;;;3.47;;
3068;SDS011;1545;51.728;8.796;2023-03-19T12:14:52;7.70;;;3.97;;
3068;SDS011;1545;51.728;8.796;2023-03-19T12:17:35;6.20;;;3.80;;
3068;SDS011;1545;51.728;8.796;2023-03-19T12:20:32;5.17;;;3.43;;
3068;SDS011;1545;51.728;8.796;2023-03-19T12:23:06;6.20;;;3.30;;
3068;SDS011;1545;51.728;8.796;2023-03-19T12:33:44;4.67;;;3.60;;
3068;SDS011;1545;51.728;8.796;2023-03-19T12:36:34;4.00;;;3.17;;
3068;SDS011;1545;51.728;8.796;2023-03-19T12:39:11;5.37;;;3.83;;
3068;SDS011;1545;51.728;8.796;2023-03-19T12:41:42;5.93;;;4.00;;
3068;SDS011;1545;51.728;8.796;2023-03-19T12:44:31;5.00;;;3.43;;
3068;SDS011;1545;51.728;8.796;2023-03-19T12:47:08;7.63;;;4.30;;
3068;SDS011;1545;51.728;8.796;2023-03-19T12:49:48;8.60;;;4.13;;
3068;SDS011;1545;51.728;8.796;2023-03-19T12:52:25;8.33;;;3.87;;
3068;SDS011;1545;51.728;8.796;2023-03-19T12:55:15;6.57;;;4.30;;
3068;SDS011;1545;51.728;8.796;2023-03-19T12:57:47;6.03;;;4.30;;
3068;SDS011;1545;51.728;8.796;2023-03-19T13:08:33;6.53;;;4.57;;
3068;SDS011;1545;51.728;8.796;2023-03-19T13:11:04;6.43;;;4.57;;
3068;SDS011;1545;51.728;8.796;2023-03-19T13:13:40;9.73;;;5.47;;
3068;SDS011;1545;51.728;8.796;2023-03-19T13:16:32;6.97;;;4.90;;
3068;SDS011;1545;51.728;8.796;2023-03-19T13:19:05;8.23;;;4.80;;
3068;SDS011;1545;51.728;8.796;2023-03-19T13:21:54;11.13;;;4.97;;
3068;SDS011;1545;51.728;8.796;2023-03-19T13:24:24;8.77;;;5.57;;
3068;SDS011;1545;51.728;8.796;2023-03-19T13:26:53;9.70;;;5.50;;
3068;SDS011;1545;51.728;8.796;2023-03-19T13:29:23;8.60;;;5.03;;
3068;SDS011;1545;51.728;8.796;2023-03-19T13:31:51;7.23;;;4.57;;
3068;SDS011;1545;51.728;8.796;2023-03-19T13:34:24;6.00;;;4.57;;
3068;SDS011;1545;51.728;8.796;2023-03-19T13:36:52;9.03;;;4.90;;
3068;SDS011;1545;51.728;8.796;2023-03-19T13:39:26;10.00;;;5.60;;
3068;SDS011;1545;51.728;8.796;2023-03-19T13:46:55;6.57;;;4.87;;
3068;SDS011;1545;51.728;8.796;2023-03-19T13:49:25;6.90;;;4.83;;
3068;SDS011;1545;51.728;8.796;2023-03-19T13:51:53;7.77;;;4.70;;
3068;SDS011;1545;51.728;8.796;2023-03-19T13:54:33;8.50;;;5.00;;
3068;SDS011;1545;51.728;8.796;2023-03-19T13:57:03;9.30;;;5.33;;
3068;SDS011;1545;51.728;8.796;2023-03-19T13:59:41;7.03;;;4.67;;
3068;SDS011;1545;51.728;8.796;2023-03-19T14:04:50;6.43;;;4.87;;
3068;SDS011;1545;51.728;8.796;2023-03-19T14:07:26;9.30;;;4.83;;
3068;SDS011;1545;51.728;8.796;2023-03-19T14:15:00;8.47;;;5.17;;
3068;SDS011;1545;51.728;8.796;2023-03-19T14:17:34;8.57;;;5.27;;
3068;SDS011;1545;51.728;8.796;2023-03-19T14:20:04;10.03;;;6.13;;
3068;SDS011;1545;51.728;8.796;2023-03-19T14:25:51;14.17;;;7.23;;
3068;SDS011;1545;51.728;8.796;2023-03-19T14:28:34;15.70;;;8.30;;
3068;SDS011;1545;51.728;8.796;2023-03-19T14:31:30;12.33;;;8.33;;
3068;SDS011;1545;51.728;8.796;2023-03-19T14:36:35;12.77;;;8.50;;
3068;SDS011;1545;51.728;8.796;2023-03-19T14:39:17;12.93;;;8.10;;
3068;SDS011;1545;51.728;8.796;2023-03-19T14:41:48;15.27;;;8.77;;
3068;SDS011;1545;51.728;8.796;2023-03-19T14:44:29;16.37;;;8.73;;
3068;SDS011;1545;51.728;8.796;2023-03-19T14:49:55;15.10;;;9.63;;
3068;SDS011;1545;51.728;8.796;2023-03-19T14:52:50;14.50;;;9.40;;
3068;SDS011;1545;51.728;8.796;2023-03-19T14:55:31;16.23;;;10.07;;
3068;SDS011;1545;51.728;8.796;2023-03-19T14:58:01;12.77;;;8.00;;
3068;SDS011;1545;51.728;8.796;2023-03-19T15:00:28;12.03;;;8.13;;
3068;SDS011;1545;51.728;8.796;2023-03-19T15:03:01;11.70;;;7.30;;
3068;SDS011;1545;51.728;8.796;2023-03-19T15:05:28;10.37;;;6.63;;
3068;SDS011;1545;51.728;8.796;2023-03-19T15:08:03;10.03;;;6.10;;
3068;SDS011;1545;51.728;8.796;2023-03-19T15:10:31;8.90;;;6.20;;
3068;SDS011;1545;51.728;8.796;2023-03-19T15:13:12;11.50;;;7.37;;
3068;SDS011;1545;51.728;8.796;2023-03-19T15:18:20;13.40;;;7.90;;
3068;SDS011;1545;51.728;8.796;2023-03-19T15:20:49;13.37;;;8.03;;
3068;SDS011;1545;51.728;8.796;2023-03-19T15:23:20;11.50;;;8.43;;
3068;SDS011;1545;51.728;8.796;2023-03-19T15:25:49;16.57;;;7.87;;
3068;SDS011;1545;51.728;8.796;2023-03-19T15:28:16;12.13;;;7.97;;
3068;SDS011;1545;51.728;8.796;2023-03-19T15:30:43;10.83;;;7.40;;
3068;SDS011;1545;51.728;8.796;2023-03-19T15:33:19;15.97;;;8.30;;
3068;SDS011;1545;51.728;8.796;2023-03-19T15:35:59;15.53;;;8.30;;
3068;SDS011;1545;51.728;8.796;2023-03-19T15:38:33;13.33;;;8.50;;
3068;SDS011;1545;51.728;8.796;2023-03-19T15:41:20;12.07;;;8.47;;
3068;SDS011;1545;51.728;8.796;2023-03-19T15:43:48;14.27;;;8.73;;
3068;SDS011;1545;51.728;8.796;2023-03-19T15:46:14;12.17;;;8.10;;
3068;SDS011;1545;51.728;8.796;2023-03-19T15:48:43;12.73;;;8.50;;
3068;SDS011;1545;51.728;8.796;2023-03-19T15:51:13;12.13;;;7.93;;
3068;SDS011;1545;51.728;8.796;2023-03-19T15:53:40;15.37;;;8.60;;
3068;SDS011;1545;51.728;8.796;2023-03-19T15:56:06;12.73;;;7.87;;
3068;SDS011;1545;51.728;8.796;2023-03-19T15:58:36;12.13;;;7.97;;
3068;SDS011;1545;51.728;8.796;2023-03-19T16:01:05;12.53;;;7.47;;
3068;SDS011;1545;51.728;8.796;2023-03-19T16:04:15;13.70;;;7.27;;
3068;SDS011;1545;51.728;8.796;2023-03-19T16:06:29;10.00;;;6.30;;
3068;SDS011;1545;51.728;8.796;2023-03-19T16:11:54;9.77;;;5.70;;
3068;SDS011;1545;51.728;8.796;2023-03-19T16:14:30;8.37;;;4.77;;
3068;SDS011;1545;51.728;8.796;2023-03-19T16:17:14;9.73;;;5.80;;
3068;SDS011;1545;51.728;8.796;2023-03-19T16:19:51;15.77;;;5.30;;
3068;SDS011;1545;51.728;8.796;2023-03-19T16:22:22;7.13;;;5.30;;
3068;SDS011;1545;51.728;8.796;2023-03-19T16:24:52;9.73;;;5.70;;
3068;SDS011;1545;51.728;8.796;2023-03-19T16:27:20;6.37;;;4.67;;
3068;SDS011;1545;51.728;8.796;2023-03-19T16:29:56;12.97;;;5.13;;
3068;SDS011;1545;51.728;8.796;2023-03-19T16:32:23;11.53;;;5.60;;
3068;SDS011;1545;51.728;8.796;2023-03-19T16:34:54;14.93;;;5.83;;
3068;SDS011;1545;51.728;8.796;2023-03-19T16:37:33;14.93;;;6.50;;
3068;SDS011;1545;51.728;8.796;2023-03-19T16:47:41;9.97;;;6.23;;
3068;SDS011;1545;51.728;8.796;2023-03-19T16:50:08;12.97;;;6.20;;